Stormwatcher's Retreat Logo




                  Temp     Hi    Low   Out    Dew  Wind  Wind   Wind    Hi    Hi   Wind   Heat    THW   THSW                Rain  Solar   Solar Hi Solar   UV    UV    Hi     Heat    Cool    In     In    In     In     In   In Air          Wind  Wind    ISS   Arc.
  Date    Time     Out   Temp   Temp   Hum    Pt. Speed   Dir    Run Speed   Dir  Chill  Index  Index  Index   Bar    Rain  Rate   Rad.  Energy    Rad.  Index  Dose   UV     D-D     D-D    Temp   Hum    Dew   Heat    EMC Density     ET   Samp   Tx   Recept  Int.
------------------------------------------------------------------------------------------------------------------------------------------------------------------------------------------------------------------------------------------------------------------------
 9/28/20 12:10a   63.8   64.1   63.7    64   51.4   6.0     E   1.00  14.0   ESE   63.8   63.2   63.2   60.6  30.235  0.00  0.00     0     0.00      0     0.0  0.00   0.0   0.008   0.000   72.8    58   57.2   72.9  10.64  .0741    0.000   200    7    100.0   10 
 9/28/20 12:20a   63.4   63.8   63.3    65   51.4   6.0   ENE   1.00  10.0   ESE   63.4   62.8   62.8   60.2  30.238  0.00  0.00     0     0.00      0     0.0  0.00   0.0   0.011   0.000   72.8    58   57.2   72.9  10.64  .0741    0.000   202    7    100.0   10 
 9/28/20 12:30a   63.2   63.4   63.1    66   51.6   7.0     E   1.17  11.0   ENE   63.1   62.7   62.6   60.0  30.233  0.00  0.00     0     0.00      0     0.0  0.00   0.0   0.012   0.000   72.7    58   57.1   72.8  10.64  .0742    0.000   205    7    100.0   10 
 9/28/20 12:40a   62.8   63.2   62.8    67   51.7   8.0     E   1.33  13.0   ESE   61.9   62.3   61.4   58.9  30.226  0.00  0.00     0     0.00      0     0.0  0.00   0.0   0.015   0.000   72.7    58   57.1   72.8  10.64  .0741    0.000   203    7    100.0   10 
 9/28/20 12:50a   62.5   62.7   62.5    67   51.4   8.0     E   1.33  15.0   ESE   61.5   62.0   61.0   58.5  30.225  0.00  0.00     0     0.00      0     0.0  0.00   0.0   0.017   0.000   72.7    58   57.1   72.8  10.64  .0741    0.000   203    7    100.0   10 
 9/28/20  1:00a   62.5   62.6   62.5    67   51.4   9.0     E   1.50  15.0     E   60.6   62.0   60.1   57.7  30.224  0.00  0.00     0     0.00      0     0.0  0.00   0.0   0.017   0.000   72.7    58   57.1   72.8  10.64  .0741    0.003   204    7    100.0   10 
 9/28/20  1:10a   62.1   62.5   62.1    68   51.4  10.0     E   1.67  14.0     E   59.4   61.5   58.8   56.5  30.221  0.00  0.00     0     0.00      0     0.0  0.00   0.0   0.020   0.000   72.7    58   57.1   72.8  10.64  .0741    0.000   203    7    100.0   10 
 9/28/20  1:20a   61.6   62.1   61.6    70   51.7   9.0     E   1.50  14.0   ENE   59.6   61.1   59.1   56.7  30.219  0.00  0.00     0     0.00      0     0.0  0.00   0.0   0.024   0.000   72.7    58   57.1   72.8  10.64  .0741    0.000   203    7    100.0   10 
 9/28/20  1:30a   61.6   61.7   61.6    70   51.7   7.0     E   1.17  12.0   ESE   61.2   61.1   60.7   58.1  30.215  0.00  0.00     0     0.00      0     0.0  0.00   0.0   0.024   0.000   72.7    58   57.1   72.8  10.64  .0741    0.000   203    7    100.0   10 
 9/28/20  1:40a   61.5   61.6   61.5    70   51.6   7.0     E   1.17  11.0   ESE   61.1   61.0   60.6   58.0  30.210  0.00  0.00     0     0.00      0     0.0  0.00   0.0   0.024   0.000   72.7    58   57.1   72.8  10.64  .0741    0.000   204    7    100.0   10 
 9/28/20  1:50a   61.3   61.5   61.2    70   51.4   7.0     E   1.17  14.0   ESE   60.8   60.7   60.2   57.6  30.209  0.00  0.00     0     0.00      0     0.0  0.00   0.0   0.026   0.000   72.6    58   57.0   72.6  10.65  .0741    0.000   203    7    100.0   10 
 9/28/20  2:00a   61.5   61.5   61.3    70   51.6   6.0     E   1.00  10.0     E   61.4   61.0   60.9   58.3  30.207  0.00  0.00     0     0.00      0     0.0  0.00   0.0   0.024   0.000   72.6    58   57.0   72.6  10.65  .0741    0.002   203    7    100.0   10 
 9/28/20  2:10a   61.6   61.6   61.5    69   51.3   5.0     E   0.83  10.0     E   61.6   61.0   61.0   58.4  30.203  0.00  0.00     0     0.00      0     0.0  0.00   0.0   0.024   0.000   72.6    58   57.0   72.6  10.65  .0741    0.000   204    7    100.0   10 
 9/28/20  2:20a   62.3   62.3   61.6    68   51.6   4.0     E   0.67   9.0    SE   62.3   61.8   61.8   59.2  30.198  0.00  0.00     0     0.00      0     0.0  0.00   0.0   0.019   0.000   72.6    58   57.0   72.6  10.65  .0741    0.000   202    7    100.0   10 
 9/28/20  2:30a   62.5   62.5   62.3    66   51.0   5.0     E   0.83   9.0   ESE   62.5   61.9   61.9   59.3  30.194  0.00  0.00     0     0.00      0     0.0  0.00   0.0   0.017   0.000   72.6    58   57.0   72.6  10.65  .0741    0.000   201    7    100.0   10 
 9/28/20  2:40a   62.3   62.5   62.3    67   51.2   4.0   ESE   0.67   8.0     E   62.3   61.7   61.7   59.1  30.190  0.00  0.00     0     0.00      0     0.0  0.00   0.0   0.019   0.000   72.5    58   56.9   72.5  10.65  .0741    0.000   201    7    100.0   10 
 9/28/20  2:50a   61.6   62.3   61.6    69   51.3   2.0     E   0.33   6.0   SSE   61.6   61.0   61.0   58.4  30.188  0.00  0.00     0     0.00      0     0.0  0.00   0.0   0.024   0.000   72.5    58   56.9   72.5  10.65  .0741    0.000   204    7    100.0   10 
 9/28/20  3:00a   60.8   61.6   60.8    71   51.3   2.0   ENE   0.33   6.0   ESE   60.8   60.3   60.3   57.7  30.184  0.00  0.00     0     0.00      0     0.0  0.00   0.0   0.029   0.000   72.5    58   56.9   72.5  10.65  .0741    0.002   205    7    100.0   10 
 9/28/20  3:10a   60.8   60.8   60.7    73   52.1   2.0     E   0.33   5.0   SSE   60.8   60.4   60.4   57.9  30.183  0.00  0.00     0     0.00      0     0.0  0.00   0.0   0.029   0.000   72.5    58   56.9   72.5  10.65  .0741    0.000   203    7    100.0   10 
 9/28/20  3:20a   60.2   60.9   60.2    79   53.7   2.0   SSW   0.33   5.0     S   60.2   60.1   60.1   57.6  30.184  0.00  0.00     0     0.00      0     0.0  0.00   0.0   0.033   0.000   72.5    58   56.9   72.5  10.65  .0741    0.000   203    7    100.0   10 
 9/28/20  3:30a   59.3   60.2   59.3    79   52.8   1.0   SSW   0.17   3.0   SSW   59.3   59.1   59.1   56.6  30.183  0.00  0.00     0     0.00      0     0.0  0.00   0.0   0.040   0.000   72.4    58   56.8   72.3  10.65  .0741    0.000   204    7    100.0   10 
 9/28/20  3:40a   58.5   59.3   58.5    79   52.0   2.0     S   0.33   4.0     S   58.5   58.2   58.2   55.7  30.183  0.00  0.00     0     0.00      0     0.0  0.00   0.0   0.045   0.000   72.4    58   56.8   72.3  10.65  .0741    0.000   205    7    100.0   10 
 9/28/20  3:50a   57.5   58.5   57.5    79   51.0   1.0     S   0.17   4.0     S   57.5   57.2   57.2   54.6  30.179  0.00  0.00     0     0.00      0     0.0  0.00   0.0   0.052   0.000   72.3    58   56.7   72.2  10.66  .0741    0.000   201    7    100.0   10 
 9/28/20  4:00a   57.1   57.5   57.1    79   50.6   2.0   SSE   0.33   4.0   SSE   57.1   56.8   56.8   54.2  30.177  0.00  0.00     0     0.00      0     0.0  0.00   0.0   0.055   0.000   72.3    58   56.7   72.2  10.66  .0741    0.001   202    7    100.0   10 
 9/28/20  4:10a   57.3   57.3   56.8    79   50.8   2.0    SE   0.33   4.0   SSE   57.3   57.0   57.0   54.4  30.177  0.00  0.00     0     0.00      0     0.0  0.00   0.0   0.053   0.000   72.3    58   56.7   72.2  10.66  .0741    0.000   203    7    100.0   10 
 9/28/20  4:20a   57.8   57.8   57.3    77   50.6   2.0   ENE   0.33   6.0    NE   57.8   57.4   57.4   54.8  30.176  0.00  0.00     0     0.00      0     0.0  0.00   0.0   0.050   0.000   72.3    58   56.7   72.2  10.66  .0741    0.000   204    7    100.0   10 
 9/28/20  4:30a   58.5   58.6   57.9    77   51.3   1.0   ENE   0.17   4.0     E   58.5   58.1   58.1   55.5  30.178  0.00  0.00     0     0.00      0     0.0  0.00   0.0   0.045   0.000   72.2    58   56.6   72.0  10.66  .0741    0.000   204    7    100.0   10 
 9/28/20  4:40a   58.0   58.5   58.0    76   50.5   1.0     E   0.17   3.0     E   58.0   57.6   57.6   55.0  30.177  0.00  0.00     0     0.00      0     0.0  0.00   0.0   0.049   0.000   72.2    58   56.6   72.0  10.66  .0741    0.000   202    7    100.0   10 
 9/28/20  4:50a   57.5   58.0   57.5    78   50.7   2.0   ENE   0.33   5.0   NNE   57.5   57.2   57.2   54.6  30.175  0.00  0.00     0     0.00      0     0.0  0.00   0.0   0.052   0.000   72.2    58   56.6   72.0  10.66  .0741    0.000   201    7    100.0   10 
 9/28/20  5:00a   57.0   57.6   57.0    77   49.9   2.0   ENE   0.33   4.0   ENE   57.0   56.6   56.6   53.9  30.171  0.00  0.00     0     0.00      0     0.0  0.00   0.0   0.056   0.000   72.2    58   56.6   72.0  10.66  .0741    0.001   204    7    100.0   10 
 9/28/20  5:10a   56.9   57.1   56.8    80   50.8   0.0   ENE   0.00   1.0   ENE   56.9   56.6   56.6   54.0  30.170  0.00  0.00     0     0.00      0     0.0  0.00   0.0   0.056   0.000   72.1    58   56.5   71.9  10.67  .0741    0.000   203    7    100.0   10 
 9/28/20  5:20a   56.7   57.0   56.7    81   50.9   2.0    NE   0.33   4.0    NE   56.7   56.4   56.4   53.8  30.166  0.00  0.00     0     0.00      0     0.0  0.00   0.0   0.058   0.000   72.1    58   56.5   71.9  10.67  .0741    0.000   204    7    100.0   10 
 9/28/20  5:30a   56.9   56.9   56.5    85   52.4   1.0    NE   0.17   4.0   SSE   56.9   56.8   56.8   54.3  30.166  0.00  0.00     0     0.00      0     0.0  0.00   0.0   0.056   0.000   72.0    58   56.4   71.7  10.67  .0741    0.000   203    7    100.0   10 
 9/28/20  5:40a   57.2   57.3   56.9    86   53.0   1.0     S   0.17   3.0     S   57.2   57.1   57.1   54.6  30.161  0.00  0.00     0     0.00      0     0.0  0.00   0.0   0.054   0.000   72.0    58   56.4   71.7  10.67  .0741    0.000   203    7    100.0   10 
 9/28/20  5:50a   56.2   57.2   56.2    82   50.8   1.0     E   0.17   4.0     E   56.2   56.0   56.0   53.4  30.160  0.00  0.00     0     0.00      0     0.0  0.00   0.0   0.061   0.000   71.8    58   56.2   71.5  10.68  .0741    0.000   199    7    100.0   10 
 9/28/20  6:00a   56.4   56.4   56.0    85   51.9   0.0     E   0.00   3.0     E   56.4   56.3   56.3   53.7  30.160  0.00  0.00     0     0.00      0     0.0  0.00   0.0   0.060   0.000   71.8    58   56.2   71.5  10.68  .0741    0.001   203    7    100.0   10 
 9/28/20  6:10a   56.9   56.9   56.4    85   52.4   0.0   ---   0.00   0.0   ---   56.9   56.8   56.8   54.3  30.156  0.00  0.00     0     0.00      0     0.0  0.00   0.0   0.056   0.000   71.7    58   56.1   71.3  10.68  .0741    0.000   203    7    100.0   10 
 9/28/20  6:20a   56.8   56.9   56.8    84   52.0   0.0   ---   0.00   0.0   ---   56.8   56.7   56.7   54.2  30.155  0.00  0.00     0     0.00      0     0.0  0.00   0.0   0.057   0.000   71.6    58   56.0   71.2  10.69  .0742    0.000   201    7    100.0   10 
 9/28/20  6:30a   56.0   56.8   56.0    81   50.3   1.0     E   0.17   9.0   ENE   56.0   55.7   55.7   53.1  30.150  0.00  0.00     0     0.00      0     0.0  0.00   0.0   0.063   0.000   71.6    58   56.0   71.2  10.69  .0741    0.000   203    7    100.0   10 
 9/28/20  6:40a   56.4   56.4   55.9    82   51.0   1.0     E   0.17   4.0   NNE   56.4   56.2   56.2   53.6  30.146  0.00  0.00     0     0.00      0     0.0  0.00   0.0   0.060   0.000   71.5    58   55.9   71.0  10.69  .0742    0.000   201    7    100.0   10 
 9/28/20  6:50a   56.7   56.7   56.4    83   51.6   2.0     S   0.33   6.0   ESE   56.7   56.5   56.5   53.9  30.146  0.00  0.00     0     0.00      0     0.0  0.00   0.0   0.058   0.000   71.6    58   56.0   71.2  10.69  .0741    0.000   204    7    100.0   10 
 9/28/20  7:00a   56.9   56.9   56.7    82   51.5   2.0     N   0.33   8.0     E   56.9   56.7   56.7   54.1  30.149  0.00  0.00     0     0.00      0     0.0  0.00   0.0   0.056   0.000   71.5    58   55.9   71.0  10.69  .0742    0.000   202    7    100.0   10 
 9/28/20  7:10a   60.7   60.7   56.9    66   49.3   7.0     E   1.17  13.0     E   60.0   59.9   59.2   56.6  30.142  0.00  0.00     1     0.01      5     0.0  0.00   0.0   0.030   0.000   71.6    58   56.0   71.2  10.69  .0741    0.000   202    7    100.0   10 
 9/28/20  7:20a   63.7   63.7   60.8    57   48.2  10.0     E   1.67  15.0   ENE   61.3   62.5   60.1   57.9  30.144  0.00  0.00     7     0.10      9     0.0  0.00   0.0   0.009   0.000   71.6    57   55.6   71.1  10.49  .0741    0.000   203    7    100.0   10 
 9/28/20  7:30a   64.9   64.9   63.8    54   47.9  11.0     E   1.83  17.0     E   62.0   63.6   60.7   58.6  30.145  0.00  0.00    11     0.16     12     0.0  0.00   0.0   0.001   0.000   71.5    57   55.5   70.9  10.49  .0742    0.000   203    7    100.0   10 
 9/28/20  7:40a   65.5   65.6   64.9    52   47.4  11.0     E   1.83  16.0   ENE   62.7   64.1   61.3   59.3  30.146  0.00  0.00    15     0.22     16     0.0  0.00   0.0   0.000   0.003   71.5    57   55.5   70.9  10.49  .0742    0.000   201    7    100.0   10 
 9/28/20  7:50a   65.8   65.9   65.5    51   47.2  11.0   ENE   1.83  20.0   ENE   63.1   64.3   61.6   59.6  30.146  0.00  0.00    18     0.26     19     0.0  0.00   0.0   0.000   0.006   71.5    57   55.5   70.9  10.49  .0742    0.000   204    7    100.0   10 
 9/28/20  8:00a   64.9   65.8   64.9    53   47.4  10.0   ENE   1.67  18.0    NE   62.7   63.5   61.3   60.3  30.143  0.00  0.00    20     0.29     21     0.0  0.00   0.0   0.001   0.000   71.6    57   55.6   71.1  10.49  .0741    0.004   203    7    100.0   10 
 9/28/20  8:10a   65.5   65.5   64.8    52   47.4  11.0   ENE   1.83  22.0   ENE   62.7   64.1   61.3   60.5  30.136  0.00  0.00    23     0.33     30     0.0  0.00   0.0   0.000   0.003   71.6    56   55.1   71.0  10.32  .0741    0.000   204    7    100.0   10 
 9/28/20  8:20a   66.2   66.2   65.6    50   47.0  13.0   ENE   2.17  28.0    NE   62.3   64.6   60.7   62.8  30.133  0.00  0.00   111     1.59    134     0.0  0.00   0.0   0.000   0.008   71.7    57   55.7   71.2  10.48  .0741    0.000   202    7    100.0   10 
 9/28/20  8:30a   66.4   66.5   66.2    51   47.7  10.0   ENE   1.67  20.0   ENE   64.4   65.0   63.0   66.6  30.136  0.00  0.00   153     2.19    169     0.0  0.00   0.0   0.000   0.010   71.8    57   55.7   71.4  10.48  .0741    0.000   204    7    100.0   10 
 9/28/20  8:40a   66.1   66.4   66.0    51   47.4  11.0   ENE   1.83  21.0     E   63.4   64.6   61.9   66.3  30.128  0.00  0.00   187     2.68    200     0.3  0.02   0.5   0.000   0.008   71.8    56   55.3   71.3  10.31  .0741    0.000   205    7    100.0   10 
 9/28/20  8:50a   66.2   66.3   66.1    50   47.0  12.0   ENE   2.00  21.0    NE   62.8   64.6   61.2   66.1  30.130  0.00  0.00   217     3.11    229     0.6  0.04   0.6   0.000   0.008   71.8    55   54.8   71.2  10.11  .0741    0.000   203    7    100.0   10 
 9/28/20  9:00a   67.5   67.5   66.2    48   47.1  13.0   ENE   2.17  26.0     E   63.9   65.9   62.3   67.6  30.127  0.00  0.00   247     3.54    260     0.7  0.05   0.8   0.000   0.017   71.8    55   54.8   71.2  10.11  .0741    0.009   203    7    100.0   10 
 9/28/20  9:10a   68.2   68.2   67.5    48   47.8  10.0   ENE   1.67  23.0   ENE   66.1   66.7   64.6   71.0  30.126  0.00  0.00   276     3.96    290     0.9  0.06   1.0   0.000   0.022   71.8    55   54.8   71.2  10.11  .0741    0.000   203    7    100.0   10 
 9/28/20  9:20a   68.9   68.9   68.2    47   47.8   8.0   ENE   1.33  20.0    NE   68.2   67.2   66.5   73.8  30.122  0.00  0.00   304     4.36    316     1.1  0.08   1.2   0.000   0.027   71.9    56   55.3   71.4  10.31  .0741    0.000   205    7    100.0   10 
 9/28/20  9:30a   70.0   70.0   69.0    44   47.1   7.0     E   1.17  17.0     E   70.0   67.7   67.7   75.8  30.118  0.00  0.00   331     4.74    343     1.3  0.09   1.4   0.000   0.035   72.0    56   55.4   71.6  10.31  .0740    0.000   202    7    100.0   10 
 9/28/20  9:40a   70.4   70.5   69.9    45   48.0   8.0     E   1.33  19.0   NNE   69.9   68.3   67.8   76.0  30.120  0.00  0.00   358     5.13    369     1.5  0.11   1.6   0.000   0.038   72.0    53   53.9   71.3   9.77  .0741    0.000   202    7    100.0   10 
 9/28/20  9:50a   70.8   70.9   70.5    45   48.4   7.0   ENE   1.17  19.0   ENE   70.8   68.8   68.8   77.6  30.123  0.00  0.00   385     5.52    397     1.7  0.12   1.8   0.000   0.040   71.9    53   53.8   71.2   9.77  .0741    0.000   203    7    100.0   10 
 9/28/20 10:00a   71.3   71.3   70.8    45   48.9   5.0     E   0.83  11.0    NE   71.3   69.6   69.6   78.9  30.121  0.00  0.00   412     5.91    422     1.9  0.14   2.1   0.000   0.044   72.0    53   53.9   71.3   9.77  .0741    0.012   205    7    100.0   10 
 9/28/20 10:10a   71.2   71.4   71.2    47   49.9   6.0     E   1.00  14.0   NNE   71.2   69.6   69.6   79.1  30.123  0.00  0.00   435     6.24    446     2.2  0.16   2.3   0.000   0.043   72.1    54   54.5   71.6   9.91  .0741    0.000   203    7    100.0   10 
 9/28/20 10:20a   71.1   71.1   70.8    47   49.8   7.0   ENE   1.17  16.0   NNE   71.1   69.4   69.4   78.9  30.123  0.00  0.00   459     6.58    469     2.4  0.17   2.5   0.000   0.042   72.2    54   54.6   71.7   9.91  .0740    0.000   203    7    100.0   10 
 9/28/20 10:30a   72.3   72.3   71.1    43   48.5   8.0   ENE   1.33  23.0   ENE   71.8   70.9   70.4   79.7  30.121  0.00  0.00   483     6.92    494     2.7  0.19   2.8   0.000   0.051   72.3    54   54.7   71.9   9.90  .0740    0.000   204    7    100.0   10 
 9/28/20 10:40a   73.2   73.3   72.4    43   49.4   7.0   ENE   1.17  16.0    NE   73.2   72.2   72.2   82.0  30.119  0.00  0.00   506     7.25    517     2.9  0.21   3.1   0.000   0.057   72.4    54   54.8   72.0   9.90  .0740    0.000   205    7    100.0   10 
 9/28/20 10:50a   73.9   73.9   73.0    42   49.4   9.0   ENE   1.50  20.0   ENE   72.6   73.1   71.8   81.0  30.114  0.00  0.00   528     7.57    536     3.2  0.23   3.3   0.000   0.062   72.5    54   54.9   72.2   9.90  .0740    0.000   200    7    100.0   10 
 9/28/20 11:00a   75.5   75.6   73.9    41   50.1   7.0   ENE   1.17  15.0   ENE   75.5   74.8   74.8   84.9  30.109  0.00  0.00   548     7.86    557     3.5  0.25   3.6   0.000   0.073   72.6    53   54.5   72.2   9.75  .0740    0.016   203    7    100.0   10 
 9/28/20 11:10a   76.7   76.7   75.6    38   49.2   6.0     E   1.00  13.0    NE   76.7   75.8   75.8   86.1  30.107  0.00  0.00   567     8.13    575     3.7  0.26   3.8   0.000   0.081   72.7    53   54.6   72.4   9.74  .0739    0.000   203    7    100.0   10 
 9/28/20 11:20a   77.4   77.4   76.7    38   49.8   7.0     E   1.17  14.0   ENE   77.4   76.4   76.4   86.6  30.098  0.00  0.00   586     8.40    594     4.0  0.29   4.0   0.000   0.086   72.8    53   54.7   72.5   9.74  .0739    0.000   204    7    100.0   10 
 9/28/20 11:30a   78.2   78.2   77.4    35   48.3   9.0   ENE   1.50  18.0    NE   77.0   76.9   75.7   85.1  30.096  0.00  0.00   603     8.64    610     4.2  0.30   4.3   0.000   0.092   72.9    53   54.8   72.7   9.73  .0739    0.000   202    7    100.0   10 
 9/28/20 11:40a   78.7   78.7   78.2    37   50.2   7.0     E   1.17  16.0   ESE   78.7   77.6   77.6   88.0  30.099  0.00  0.00   619     8.87    626     4.4  0.31   4.5   0.000   0.095   73.0    51   53.8   72.6   9.39  .0739    0.000   204    7    100.0   10 
 9/28/20 11:50a   75.8   78.7   75.8    46   53.5   4.0   ENE   0.67  11.0   ENE   75.8   75.5   75.5   86.3  30.100  0.00  0.00   631     9.05    636     4.6  0.33   4.7   0.000   0.075   73.2    51   54.0   72.8   9.39  .0739    0.000   204    7    100.0   10 
 9/28/20 12:00p   75.7   75.8   75.0    45   52.8   3.0   ENE   0.50   9.0   ENE   75.7   75.3   75.3   86.0  30.092  0.00  0.00   645     9.25    650     4.8  0.34   4.9   0.000   0.074   73.3    51   54.1   73.0   9.38  .0738    0.019   204    7    100.0   10 
 9/28/20 12:10p   76.5   76.6   75.7    43   52.3   6.0    NE   1.00  14.0     N   76.5   75.9   75.9   86.7  30.089  0.00  0.00   657     9.42    664     4.9  0.35   4.9   0.000   0.080   73.4    52   54.7   73.2   9.58  .0738    0.000   204    7    100.0   10 
 9/28/20 12:20p   76.6   76.6   76.2    45   53.7   4.0   ENE   0.67  10.0     N   76.6   76.1   76.1   87.0  30.087  0.00  0.00   667     9.56    673     5.0  0.36   5.1   0.000   0.081   73.5    52   54.8   73.3   9.58  .0738    0.000   204    7    100.0   10 
 9/28/20 12:30p   77.5   77.7   76.6    44   53.9   4.0   ENE   0.67  10.0    NE   77.5   77.0   77.0   87.9  30.084  0.00  0.00   676     9.69    680     5.2  0.37   5.2   0.000   0.087   73.7    52   55.0   73.5   9.58  .0737    0.000   203    7    100.0   10 
 9/28/20 12:40p   78.2   78.2   77.5    39   51.2   4.0     E   0.67   9.0     E   78.2   77.2   77.2   88.0  30.077  0.00  0.00   684     9.81    687     5.3  0.38   5.3   0.000   0.092   73.9    52   55.2   73.8   9.57  .0737    0.000   204    7    100.0   10 
 9/28/20 12:50p   80.1   80.1   78.2    40   53.6   4.0     E   0.67   9.0     E   80.1   79.1   79.1   90.0  30.068  0.00  0.00   689     9.88    693     5.4  0.39   5.4   0.000   0.105   74.0    52   55.3   73.9   9.57  .0736    0.000   203    7    100.0   10 
 9/28/20  1:00p   80.1   80.5   80.0    39   52.9   5.0     E   0.83  16.0     N   80.1   79.0   79.0   89.9  30.061  0.00  0.00   694     9.95    696     5.4  0.39   5.5   0.000   0.105   74.2    52   55.4   74.2   9.57  .0736    0.019   204    7    100.0   10 
 9/28/20  1:10p   81.0   81.0   80.1    36   51.5   3.0    SE   0.50  10.0     E   81.0   79.6   79.6   90.4  30.058  0.00  0.00   697     9.99    700     5.5  0.39   5.5   0.000   0.111   74.3    52   55.5   74.3   9.56  .0736    0.000   205    7    100.0   10 
 9/28/20  1:20p   82.7   82.7   81.0    31   49.0   3.0     S   0.50   9.0     E   82.7   80.9   80.9   91.6  30.052  0.00  0.00   699    10.02    700     5.5  0.39   5.5   0.000   0.123   74.5    52   55.7   74.6   9.56  .0735    0.000   202    7    100.0   10 
 9/28/20  1:30p   84.5   84.5   82.8    33   52.2   2.0   SSW   0.33   8.0   WNW   84.5   83.3   83.3   94.2  30.045  0.00  0.00   698    10.01    700     5.5  0.39   5.5   0.000   0.135   74.7    52   55.9   74.9   9.56  .0735    0.000   204    7    100.0   10 
 9/28/20  1:40p   77.4   84.4   77.4    40   51.2   5.0     W   0.83  12.0     W   77.4   76.6   76.6   87.4  30.043  0.00  0.00   694     9.95    696     5.4  0.39   5.4   0.000   0.086   74.8    52   56.0   75.0   9.55  .0734    0.000   203    7    100.0   10 
 9/28/20  1:50p   81.1   81.1   77.5    32   48.4   1.0    NE   0.17   4.0   NNW   81.1   79.3   79.3   90.0  30.041  0.00  0.00   689     9.88    691     5.3  0.38   5.3   0.000   0.112   75.0    52   56.2   75.3   9.55  .0734    0.000   205    7    100.0   10 
 9/28/20  2:00p   85.1   85.1   81.3    31   51.1   3.0   ENE   0.50   9.0    NE   85.1   83.5   83.5   94.3  30.035  0.00  0.00   686     9.83    689     5.2  0.37   5.2   0.000   0.140   75.1    52   56.3   75.3   9.55  .0734    0.020   204    7    100.0   10 
 9/28/20  2:10p   83.0   86.8   83.0    36   53.3   3.0   SSE   0.50  11.0     W   83.0   82.0   82.0   92.9  30.027  0.00  0.00   680     9.75    682     5.1  0.36   5.1   0.000   0.125   75.3    51   55.9   75.4   9.35  .0733    0.000   203    7    100.0   10 
 9/28/20  2:20p   78.9   82.9   78.9    40   52.5   3.0     S   0.50   7.0   WNW   78.9   78.1   78.1   88.9  30.027  0.00  0.00   672     9.63    677     4.9  0.35   4.9   0.000   0.097   75.5    51   56.1   75.6   9.35  .0733    0.000   203    7    100.0   10 
 9/28/20  2:30p   78.7   80.1   78.7    44   55.0   5.0    NW   0.83  11.0    NW   78.7   78.3   78.3   89.2  30.019  0.00  0.00   659     9.45    664     4.7  0.34   4.8   0.000   0.095   75.7    52   56.8   75.9   9.54  .0732    0.000   205    7    100.0   10 
 9/28/20  2:40p   79.8   79.8   77.5    38   51.9   2.0     S   0.33   5.0   SSW   79.8   78.6   78.6   89.3  30.012  0.00  0.00   648     9.29    656     4.5  0.32   4.5   0.000   0.103   75.9    52   57.0   76.0   9.53  .0732    0.000   203    7    100.0   10 
 9/28/20  2:50p   83.1   83.1   80.0    33   51.0   3.0     S   0.50   8.0     W   83.1   81.6   81.6   92.3  30.002  0.00  0.00   637     9.13    643     4.3  0.31   4.4   0.000   0.126   76.1    52   57.2   76.2   9.53  .0731    0.000   204    7    100.0   10 
 9/28/20  3:00p   84.1   84.5   82.9    32   51.1   5.0     W   0.83  13.0   WSW   84.1   82.8   82.8   93.5  29.996  0.00  0.00   625     8.96    631     4.1  0.29   4.1   0.000   0.133   76.2    51   56.7   76.2   9.35  .0731    0.019   204    7    100.0   10 
 9/28/20  3:10p   79.3   84.8   79.3    38   51.5   5.0     W   0.83  11.0   SSE   79.3   78.3   78.3   88.9  29.994  0.00  0.00   611     8.76    619     3.8  0.27   4.0   0.000   0.099   76.4    51   56.9   76.4   9.35  .0731    0.000   205    7    100.0   10 
 9/28/20  3:20p   76.9   79.9   76.9    46   54.5   6.0     W   1.00  12.0     N   76.9   76.5   76.5   87.2  29.984  0.00  0.00   591     8.47    599     3.5  0.25   3.7   0.000   0.083   76.6    52   57.7   76.6   9.52  .0730    0.000   203    7    100.0   10 
 9/28/20  3:30p   78.0   78.3   76.6    44   54.3   7.0     W   1.17  15.0   WNW   78.0   77.5   77.5   87.9  29.986  0.00  0.00   571     8.19    582     3.3  0.24   3.4   0.000   0.090   76.7    52   57.7   76.7   9.52  .0730    0.000   202    7    100.0   10 
 9/28/20  3:40p   76.1   78.0   76.1    50   56.1   4.0   WSW   0.67  12.0   NNW   76.1   76.1   76.1   86.7  29.990  0.00  0.00   550     7.88    561     3.0  0.21   3.1   0.000   0.077   76.9    52   57.9   76.9   9.51  .0729    0.000   204    7    100.0   10 
 9/28/20  3:50p   78.3   78.3   75.9    46   55.8   2.0     S   0.33   8.0     W   78.3   78.0   78.0   88.5  29.987  0.00  0.00   529     7.58    538     2.8  0.20   2.9   0.000   0.092   77.1    52   58.1   77.1   9.51  .0729    0.000   202    7    100.0   10 
 9/28/20  4:00p   76.2   78.2   76.2    49   55.6   3.0   SSW   0.50  12.0    NW   76.2   76.1   76.1   86.5  29.986  0.00  0.00   508     7.28    519     2.5  0.18   2.6   0.000   0.078   77.2    53   58.7   77.3   9.65  .0728    0.017   203    7    100.0   10 
 9/28/20  4:10p   75.1   76.1   74.7    53   56.8   4.0     N   0.67   8.0    NW   75.1   75.4   75.4   85.6  29.987  0.00  0.00   482     6.91    496     2.2  0.16   2.4   0.000   0.070   77.4    53   58.9   77.6   9.65  .0728    0.000   203    7    100.0   10 
 9/28/20  4:20p   76.9   76.9   75.2    49   56.3   3.0    NW   0.50   5.0     N   76.9   76.7   76.7   86.8  29.980  0.00  0.00   458     6.57    466     2.0  0.14   2.1   0.000   0.083   77.5    53   59.0   77.7   9.65  .0728    0.000   204    7    100.0   10 
 9/28/20  4:30p   79.0   79.0   76.9    41   53.3   2.0   ENE   0.33   5.0   ENE   79.0   78.3   78.3   88.0  29.975  0.00  0.00   435     6.24    446     1.8  0.13   1.9   0.000   0.097   77.6    53   59.1   77.8   9.65  .0728    0.000   204    7    100.0   10 
 9/28/20  4:40p   77.9   79.2   77.8    50   57.8   4.0     N   0.67   9.0    NE   77.9   77.9   77.9   87.6  29.972  0.00  0.00   410     5.88    422     1.5  0.11   1.6   0.000   0.090   77.7    53   59.2   77.9   9.65  .0727    0.000   203    7    100.0   10 
 9/28/20  4:50p   78.3   78.3   77.9    49   57.6   4.0    NE   0.67  11.0    NE   78.3   78.3   78.3   87.7  29.971  0.00  0.00   381     5.46    396     1.3  0.09   1.4   0.000   0.092   77.9    53   59.4   78.2   9.65  .0727    0.000   202    7    100.0   10 
 9/28/20  5:00p   78.8   78.8   78.3    51   59.1   3.0   ENE   0.50  10.0    NE   78.8   79.0   79.0   88.1  29.964  0.00  0.00   354     5.07    366     1.1  0.08   1.2   0.000   0.096   77.9    53   59.4   78.2   9.65  .0727    0.012   205    7    100.0   10 
 9/28/20  5:10p   81.3   81.3   78.9    45   57.9   4.0   ENE   0.67  10.0   ENE   81.3   81.0   81.0   89.6  29.961  0.00  0.00   325     4.66    338     1.0  0.07   1.0   0.000   0.113   78.0    53   59.5   78.3   9.65  .0726    0.000   202    7    100.0   10 
 9/28/20  5:20p   83.9   83.9   81.4    40   57.0   5.0   ENE   0.83  10.0    NE   83.9   84.1   84.1   92.3  29.956  0.00  0.00   299     4.29    311     0.8  0.06   0.9   0.000   0.131   78.1    53   59.6   78.4   9.65  .0726    0.000   204    7    100.0   10 
 9/28/20  5:30p   85.6   85.6   83.9    35   54.8   6.0   ENE   1.00  14.0   ENE   85.6   84.9   84.9   92.4  29.951  0.00  0.00   269     3.86    281     0.6  0.04   0.7   0.000   0.143   78.2    53   59.7   78.5   9.65  .0726    0.000   204    7    100.0   10 
 9/28/20  5:40p   81.8   86.1   81.8    42   56.5   7.0    NE   1.17  14.0    NE   81.8   81.3   81.3   87.9  29.949  0.00  0.00   231     3.31    253     0.5  0.04   0.6   0.000   0.117   78.3    52   59.2   78.5   9.48  .0726    0.000   205    7    100.0   10 
 9/28/20  5:50p   81.0   81.7   81.0    43   56.4   8.0    NE   1.33  15.0   NNE   80.6   80.4   80.0   85.8  29.949  0.00  0.00   208     2.98    221     0.0  0.00   0.0   0.000   0.111   78.4    52   59.3   78.7   9.48  .0726    0.000   202    7    100.0   10 
 9/28/20  6:00p   79.4   81.0   79.1    48   58.0   6.0    NE   1.00  16.0    NE   79.4   79.4   79.4   84.6  29.948  0.00  0.00   172     2.47    188     0.0  0.00   0.0   0.000   0.100   78.4    52   59.3   78.7   9.48  .0726    0.010   203    7    100.0   10 
 9/28/20  6:10p   80.6   80.6   79.2    43   56.0   6.0   ENE   1.00  15.0     E   80.6   80.0   80.0   83.9  29.942  0.00  0.00   135     1.94    153     0.0  0.00   0.0   0.000   0.108   78.4    52   59.3   78.7   9.48  .0726    0.000   203    7    100.0   10 
 9/28/20  6:20p   81.3   82.0   80.6    44   57.3   7.0    NE   1.17  13.0   NNE   81.3   80.9   80.9   83.5  29.941  0.00  0.00    99     1.42    116     0.0  0.00   0.0   0.000   0.113   78.5    52   59.4   78.8   9.48  .0725    0.000   205    7    100.0   10 
 9/28/20  6:30p   81.3   81.3   80.8    40   54.7   7.0   ENE   1.17  19.0   NNE   81.3   80.4   80.4   81.6  29.935  0.00  0.00    65     0.93     79     0.0  0.00   0.0   0.000   0.113   78.6    52   59.5   78.9   9.48  .0725    0.000   203    7    100.0   10 
 9/28/20  6:40p   81.2   81.4   80.1    39   53.9   6.0   ENE   1.00  16.0    NE   81.2   80.2   80.2   80.2  29.930  0.00  0.00    39     0.56     49     0.0  0.00   0.0   0.000   0.112   78.6    52   59.5   78.9   9.48  .0725    0.000   203    7    100.0   10 
 9/28/20  6:50p   83.5   83.5   81.3    36   53.7   7.0   ENE   1.17  18.0   ENE   83.5   82.7   82.7   80.7  29.924  0.00  0.00    20     0.29     26     0.0  0.00   0.0   0.000   0.128   78.6    50   58.4   78.7   9.18  .0725    0.000   203    7    100.0   10 
 9/28/20  7:00p   83.2   83.8   83.2    36   53.5   7.0     E   1.17  14.0    SE   83.2   82.3   82.3   80.1  29.923  0.00  0.00    10     0.14     12     0.0  0.00   0.0   0.000   0.126   78.2    49   57.5   78.2   8.99  .0726    0.006   202    7    100.0   10 
 9/28/20  7:10p   82.7   83.3   82.7    37   53.8   8.0     E   1.33  15.0   ENE   82.4   81.8   81.5   79.2  29.923  0.00  0.00     3     0.04      7     0.0  0.00   0.0   0.000   0.123   77.8    49   57.1   77.7   8.99  .0727    0.000   203    7    100.0   10 
 9/28/20  7:20p   81.4   82.7   81.4    39   54.1   8.0     E   1.33  18.0   ENE   81.0   80.4   80.0   77.7  29.917  0.00  0.00     0     0.00      0     0.0  0.00   0.0   0.000   0.114   77.3    48   56.1   77.0   8.90  .0728    0.000   204    7    100.0   10 
 9/28/20  7:30p   80.6   81.4   80.6    40   54.0  10.0     E   1.67  19.0    NE   79.1   79.6   78.1   76.0  29.916  0.00  0.00     0     0.00      0     0.0  0.00   0.0   0.000   0.108   76.8    48   55.6   76.5   8.91  .0729    0.000   203    7    100.0   10 
 9/28/20  7:40p   79.8   80.6   79.8    41   54.0  12.0     E   2.00  18.0     E   77.6   79.0   76.8   74.8  29.914  0.00  0.00     0     0.00      0     0.0  0.00   0.0   0.000   0.103   76.8    50   56.8   76.6   9.21  .0728    0.000   204    7    100.0   10 
 9/28/20  7:50p   79.1   79.8   79.1    42   54.0  13.0     E   2.17  21.0    NE   76.4   78.5   75.8   73.9  29.909  0.00  0.00     0     0.00      0     0.0  0.00   0.0   0.000   0.098   77.0    50   56.9   76.8   9.21  .0728    0.000   203    7    100.0   10 
 9/28/20  8:00p   78.8   79.2   78.8    43   54.4  12.0     E   2.00  21.0     E   76.4   78.3   75.9   73.9  29.909  0.00  0.00     0     0.00      0     0.0  0.00   0.0   0.000   0.096   77.2    50   57.1   77.0   9.21  .0727    0.007   204    7    100.0   10 
 9/28/20  8:10p   78.2   78.9   78.2    44   54.5  12.0     E   2.00  23.0     E   75.7   77.7   75.2   73.2  29.903  0.00  0.00     0     0.00      0     0.0  0.00   0.0   0.000   0.092   77.3    50   57.2   77.2   9.20  .0727    0.000   202    7    100.0   10 
 9/28/20  8:20p   77.4   78.2   77.4    45   54.4  12.0     E   2.00  19.0     E   74.8   76.9   74.3   72.3  29.907  0.00  0.00     0     0.00      0     0.0  0.00   0.0   0.000   0.086   77.4    50   57.3   77.3   9.20  .0727    0.000   203    7    100.0   10 
 9/28/20  8:30p   76.6   77.4   76.6    46   54.3  12.0     E   2.00  18.0   ENE   74.0   76.2   73.6   71.6  29.905  0.00  0.00     0     0.00      0     0.0  0.00   0.0   0.000   0.081   77.4    50   57.3   77.3   9.20  .0727    0.000   201    7    100.0   10 
 9/28/20  8:40p   76.2   76.6   76.2    47   54.5  12.0     E   2.00  19.0     E   73.5   75.9   73.2   71.2  29.901  0.00  0.00     0     0.00      0     0.0  0.00   0.0   0.000   0.078   77.4    50   57.3   77.3   9.20  .0727    0.000   203    7    100.0   10 
 9/28/20  8:50p   75.8   76.2   75.7    47   54.1  12.0     E   2.00  18.0     E   73.1   75.6   72.9   70.9  29.908  0.00  0.00     0     0.00      0     0.0  0.00   0.0   0.000   0.075   77.4    50   57.3   77.3   9.20  .0727    0.000   204    7    100.0   10 
 9/28/20  9:00p   75.6   75.8   75.5    48   54.5  12.0     E   2.00  18.0   ESE   72.9   75.5   72.8   70.8  29.907  0.00  0.00     0     0.00      0     0.0  0.00   0.0   0.000   0.074   77.4    51   57.9   77.4   9.35  .0727    0.007   202    7    100.0   10 
 9/28/20  9:10p   75.5   75.6   75.4    47   53.9  13.0     E   2.17  20.0     E   72.4   75.3   72.2   70.2  29.906  0.00  0.00     0     0.00      0     0.0  0.00   0.0   0.000   0.073   77.4    51   57.9   77.4   9.35  .0727    0.000   201    7    100.0   10 
 9/28/20  9:20p   75.5   75.6   75.4    47   53.9  12.0     E   2.00  18.0     E   72.8   75.3   72.6   70.5  29.905  0.00  0.00     0     0.00      0     0.0  0.00   0.0   0.000   0.073   77.4    51   57.9   77.4   9.35  .0727    0.000   203    7    100.0   10 
 9/28/20  9:30p   75.0   75.5   75.0    48   54.0  12.0     E   2.00  20.0     E   72.2   74.9   72.1   70.0  29.908  0.00  0.00     0     0.00      0     0.0  0.00   0.0   0.000   0.069   77.5    51   57.9   77.5   9.35  .0727    0.000   205    7    100.0   10 
 9/28/20  9:40p   74.7   75.0   74.7    48   53.7  12.0     E   2.00  19.0     E   71.9   74.5   71.7   69.6  29.908  0.00  0.00     0     0.00      0     0.0  0.00   0.0   0.000   0.067   77.5    51   57.9   77.5   9.35  .0727    0.000   201    7    100.0   10 
 9/28/20  9:50p   74.4   74.7   74.4    49   54.0  13.0     E   2.17  25.0   ESE   71.1   74.2   70.9   68.9  29.906  0.00  0.00     0     0.00      0     0.0  0.00   0.0   0.000   0.065   77.5    51   57.9   77.5   9.35  .0726    0.000   204    7    100.0   10 
 9/28/20 10:00p   74.5   74.5   74.2    48   53.5  12.0     E   2.00  18.0     E   71.7   74.3   71.5   69.4  29.906  0.00  0.00     0     0.00      0     0.0  0.00   0.0   0.000   0.066   77.5    51   57.9   77.5   9.35  .0726    0.007   205    7    100.0   10 
 9/28/20 10:10p   74.5   74.6   74.5    48   53.5  12.0     E   2.00  23.0   ESE   71.7   74.3   71.5   69.4  29.904  0.00  0.00     0     0.00      0     0.0  0.00   0.0   0.000   0.066   77.5    51   57.9   77.5   9.35  .0726    0.000   203    7    100.0   10 
 9/28/20 10:20p   74.3   74.5   74.2    48   53.3  13.0     E   2.17  22.0     E   71.0   74.0   70.7   68.7  29.906  0.00  0.00     0     0.00      0     0.0  0.00   0.0   0.000   0.065   77.5    51   57.9   77.5   9.35  .0726    0.000   201    7    100.0   10 
 9/28/20 10:30p   73.8   74.3   73.8    49   53.4  12.0     E   2.00  21.0   ESE   70.9   73.4   70.5   68.4  29.906  0.00  0.00     0     0.00      0     0.0  0.00   0.0   0.000   0.061   77.5    51   57.9   77.5   9.35  .0726    0.000   203    7    100.0   10 
 9/28/20 10:40p   74.0   74.1   73.8    48   53.1  12.0     E   2.00  20.0     E   71.1   73.6   70.7   68.6  29.903  0.00  0.00     0     0.00      0     0.0  0.00   0.0   0.000   0.063   77.5    51   57.9   77.5   9.35  .0726    0.000   203    7    100.0   10 
 9/28/20 10:50p   73.9   74.1   73.9    48   53.0  12.0     E   2.00  19.0     E   71.0   73.5   70.6   68.5  29.906  0.00  0.00     0     0.00      0     0.0  0.00   0.0   0.000   0.062   77.6    51   58.0   77.6   9.35  .0726    0.000   201    7    100.0   10 
 9/28/20 11:00p   73.7   73.9   73.7    49   53.3  12.0     E   2.00  20.0     E   70.8   73.3   70.4   68.3  29.904  0.00  0.00     0     0.00      0     0.0  0.00   0.0   0.000   0.060   77.6    51   58.0   77.6   9.35  .0726    0.006   203    7    100.0   10 
 9/28/20 11:10p   73.8   73.8   73.7    48   52.9  12.0     E   2.00  23.0     E   70.9   73.3   70.4   68.3  29.905  0.00  0.00     0     0.00      0     0.0  0.00   0.0   0.000   0.061   77.6    51   58.0   77.6   9.35  .0726    0.000   203    7    100.0   10 
 9/28/20 11:20p   73.7   73.9   73.7    48   52.8  12.0     E   2.00  24.0     E   70.8   73.2   70.3   68.2  29.903  0.00  0.00     0     0.00      0     0.0  0.00   0.0   0.000   0.060   77.6    51   58.0   77.6   9.35  .0726    0.000   205    7    100.0   10 
 9/28/20 11:30p   73.9   73.9   73.6    47   52.4  12.0     E   2.00  19.0   ENE   71.0   73.4   70.5   68.4  29.902  0.00  0.00     0     0.00      0     0.0  0.00   0.0   0.000   0.062   77.5    51   57.9   77.5   9.35  .0726    0.000   203    7    100.0   10 
 9/28/20 11:40p   73.7   73.9   73.7    48   52.8  12.0     E   2.00  22.0     E   70.8   73.2   70.3   68.2  29.902  0.00  0.00     0     0.00      0     0.0  0.00   0.0   0.000   0.060   77.6    51   58.0   77.6   9.35  .0726    0.000   203    7    100.0   10 
 9/28/20 11:50p   73.7   73.8   73.7    48   52.8  12.0     E   2.00  19.0     E   70.8   73.2   70.3   68.2  29.907  0.00  0.00     0     0.00      0     0.0  0.00   0.0   0.000   0.060   77.5    51   57.9   77.5   9.35  .0726    0.000   201    7    100.0   10 
 9/29/20 12:00a   73.6   73.7   73.5    48   52.7  11.0     E   1.83  19.0   ESE   71.1   73.1   70.6   68.5  29.904  0.00  0.00     0     0.00      0     0.0  0.00   0.0   0.000   0.060   77.5    51   57.9   77.5   9.35  .0726    0.006   204    7    100.0   10 
 9/29/20 12:10a   73.4   73.6   73.3    48   52.5  11.0     E   1.83  18.0   ESE   70.9   72.8   70.3   68.2  29.906  0.00  0.00     0     0.00      0     0.0  0.00   0.0   0.000   0.058   77.5    51   57.9   77.5   9.35  .0726    0.000   202    7    100.0   10 
 9/29/20 12:20a   73.2   73.4   73.2    48   52.3  12.0     E   2.00  18.0   ESE   70.2   72.6   69.6   67.5  29.906  0.00  0.00     0     0.00      0     0.0  0.00   0.0   0.000   0.057   77.5    50   57.4   77.4   9.20  .0727    0.000   201    7    100.0   10 
 9/29/20 12:30a   72.9   73.2   72.9    48   52.1  12.0     E   2.00  20.0     E   69.9   72.2   69.2   67.1  29.909  0.00  0.00     0     0.00      0     0.0  0.00   0.0   0.000   0.055   77.5    50   57.4   77.4   9.20  .0727    0.000   205    7    100.0   10 
 9/29/20 12:40a   73.2   73.3   73.0    48   52.3  11.0     E   1.83  16.0     E   70.7   72.6   70.1   68.0  29.911  0.00  0.00     0     0.00      0     0.0  0.00   0.0   0.000   0.057   77.5    50   57.4   77.4   9.20  .0727    0.000   203    7    100.0   10 
 9/29/20 12:50a   73.4   73.4   73.2    47   51.9  11.0     E   1.83  19.0     E   70.9   72.8   70.3   68.1  29.911  0.00  0.00     0     0.00      0     0.0  0.00   0.0   0.000   0.058   77.5    50   57.4   77.4   9.20  .0727    0.000   204    7    100.0   10 
 9/29/20  1:00a   73.4   73.5   73.3    46   51.4  11.0     E   1.83  19.0   ESE   70.9   72.7   70.2   68.0  29.914  0.00  0.00     0     0.00      0     0.0  0.00   0.0   0.000   0.058   77.4    50   57.3   77.3   9.20  .0727    0.006   203    7    100.0   10 
 9/29/20  1:10a   73.6   73.6   73.3    46   51.5  12.0     E   2.00  21.0     E   70.7   72.9   70.0   67.9  29.913  0.00  0.00     0     0.00      0     0.0  0.00   0.0   0.000   0.060   77.4    50   57.3   77.3   9.20  .0727    0.000   203    7    100.0   10 
 9/29/20  1:20a   73.1   73.6   73.1    47   51.7  12.0     E   2.00  25.0   ESE   70.1   72.4   69.4   67.3  29.912  0.00  0.00     0     0.00      0     0.0  0.00   0.0   0.000   0.056   77.4    50   57.3   77.3   9.20  .0727    0.000   202    7    100.0   10 
 9/29/20  1:30a   73.3   73.3   73.0    46   51.3  12.0     E   2.00  19.0   ESE   70.3   72.6   69.6   67.5  29.912  0.00  0.00     0     0.00      0     0.0  0.00   0.0   0.000   0.058   77.4    50   57.3   77.3   9.20  .0727    0.000   203    7    100.0   10 
 9/29/20  1:40a   73.4   73.4   73.3    45   50.8  11.0     E   1.83  19.0     E   70.9   72.6   70.1   67.9  29.914  0.00  0.00     0     0.00      0     0.0  0.00   0.0   0.000   0.058   77.4    50   57.3   77.3   9.20  .0727    0.000   203    7    100.0   10 
 9/29/20  1:50a   73.2   73.4   73.2    46   51.2  12.0     E   2.00  21.0     E   70.2   72.4   69.4   67.3  29.913  0.00  0.00     0     0.00      0     0.0  0.00   0.0   0.000   0.057   77.3    50   57.2   77.2   9.20  .0727    0.000   204    7    100.0   10 
 9/29/20  2:00a   73.1   73.2   73.0    46   51.1  11.0     E   1.83  19.0   SSE   70.6   72.3   69.8   67.6  29.917  0.00  0.00     0     0.00      0     0.0  0.00   0.0   0.000   0.056   77.3    50   57.2   77.2   9.20  .0727    0.006   203    7    100.0   10 
 9/29/20  2:10a   73.3   73.3   73.0    45   50.7  11.0     E   1.83  21.0     E   70.8   72.5   70.0   67.8  29.919  0.00  0.00     0     0.00      0     0.0  0.00   0.0   0.000   0.058   77.3    50   57.2   77.2   9.20  .0727    0.000   204    7    100.0   10 
 9/29/20  2:20a   73.5   73.5   73.1    44   50.2   9.0     E   1.50  17.0     E   72.2   72.7   71.4   69.0  29.918  0.00  0.00     0     0.00      0     0.0  0.00   0.0   0.000   0.059   77.3    49   56.6   77.1   9.00  .0728    0.000   201    7    100.0   10 
 9/29/20  2:30a   73.6   73.7   73.5    44   50.3   9.0     E   1.50  16.0   SSE   72.3   72.8   71.5   69.1  29.919  0.00  0.00     0     0.00      0     0.0  0.00   0.0   0.000   0.060   77.2    49   56.6   77.0   9.01  .0728    0.000   202    7    100.0   10 
 9/29/20  2:40a   73.7   73.7   73.5    43   49.8   9.0     E   1.50  14.0     E   72.4   72.9   71.6   69.2  29.915  0.00  0.00     0     0.00      0     0.0  0.00   0.0   0.000   0.060   77.2    49   56.6   77.0   9.01  .0728    0.000   203    7    100.0   10 
 9/29/20  2:50a   73.7   73.8   73.7    42   49.2  10.0     E   1.67  15.0   ESE   71.7   72.8   70.8   68.5  29.917  0.00  0.00     0     0.00      0     0.0  0.00   0.0   0.000   0.060   77.2    49   56.6   77.0   9.01  .0728    0.000   203    7    100.0   10 
 9/29/20  3:00a   73.7   73.8   73.6    42   49.2  10.0     E   1.67  17.0   ESE   71.7   72.8   70.8   68.5  29.915  0.00  0.00     0     0.00      0     0.0  0.00   0.0   0.000   0.060   77.1    48   55.9   76.8   8.91  .0728    0.006   204    7    100.0   10 
 9/29/20  3:10a   72.8   73.9   72.8    46   50.8   7.0     E   1.17  14.0   ENE   72.8   71.9   71.9   69.3  29.933  0.00  0.00     0     0.00      0     0.0  0.00   0.0   0.000   0.054   77.1    48   55.9   76.8   8.91  .0729    0.000   203    7    100.0   10 
 9/29/20  3:20a   67.3   72.7   67.3    57   51.5   5.0     S   0.83  10.0   SSE   67.3   66.6   66.6   64.0  29.934  0.00  0.00     0     0.00      0     0.0  0.00   0.0   0.000   0.016   77.1    49   56.5   76.9   9.01  .0728    0.000   204    7    100.0   10 
 9/29/20  3:30a   68.1   68.1   67.0    56   51.8   6.0     S   1.00  10.0   SSE   68.1   67.4   67.4   64.8  29.935  0.00  0.00     0     0.00      0     0.0  0.00   0.0   0.000   0.022   77.1    50   57.0   76.9   9.21  .0728    0.000   204    7    100.0   10 
 9/29/20  3:40a   68.4   68.5   68.0    56   52.1   6.0     S   1.00  12.0   SSE   68.4   67.6   67.6   65.1  29.941  0.00  0.00     0     0.00      0     0.0  0.00   0.0   0.000   0.024   77.1    51   57.6   77.0   9.35  .0728    0.000   202    7    100.0   10 
 9/29/20  3:50a   66.0   68.4   66.0    65   53.9   5.0     S   0.83   8.0     S   66.0   65.8   65.8   63.3  29.941  0.00  0.00     0     0.00      0     0.0  0.00   0.0   0.000   0.007   77.1    51   57.6   77.0   9.35  .0728    0.000   201    7    100.0   10 
 9/29/20  4:00a   64.3   65.9   64.2    64   51.9   6.0     S   1.00  11.0    SW   64.3   63.8   63.8   61.2  29.939  0.00  0.00     0     0.00      0     0.0  0.00   0.0   0.005   0.000   77.1    52   58.1   77.1   9.51  .0728    0.003   202    7    100.0   10 
 9/29/20  4:10a   66.5   66.5   64.5    58   51.3   4.0     S   0.67  10.0     S   66.5   65.7   65.7   63.1  29.939  0.00  0.00     0     0.00      0     0.0  0.00   0.0   0.000   0.010   77.1    52   58.1   77.1   9.51  .0728    0.000   203    7    100.0   10 
 9/29/20  4:20a   65.7   66.5   65.7    60   51.4   3.0     S   0.50   6.0     S   65.7   65.0   65.0   62.4  29.939  0.00  0.00     0     0.00      0     0.0  0.00   0.0   0.000   0.005   77.1    52   58.1   77.1   9.51  .0728    0.000   205    7    100.0   10 
 9/29/20  4:30a   66.1   66.1   65.5    57   50.4   3.0     S   0.50   7.0    SE   66.1   65.2   65.2   62.6  29.939  0.00  0.00     0     0.00      0     0.0  0.00   0.0   0.000   0.008   77.0    52   58.0   77.0   9.51  .0728    0.000   203    7    100.0   10 
 9/29/20  4:40a   65.6   66.2   65.6    63   52.7   3.0   ENE   0.50   8.0   NNW   65.6   65.2   65.2   62.7  29.946  0.00  0.00     0     0.00      0     0.0  0.00   0.0   0.000   0.004   77.1    52   58.1   77.1   9.51  .0728    0.000   201    7    100.0   10 
 9/29/20  4:50a   67.1   67.1   65.5    54   49.9   4.0     E   0.67   9.0     E   67.1   66.1   66.1   63.5  29.943  0.00  0.00     0     0.00      0     0.0  0.00   0.0   0.000   0.015   77.0    52   58.0   77.0   9.51  .0728    0.000   200    7    100.0   10 
 9/29/20  5:00a   65.8   67.3   65.8    61   52.0   3.0     N   0.50   6.0    NE   65.8   65.2   65.2   62.6  29.947  0.00  0.00     0     0.00      0     0.0  0.00   0.0   0.000   0.006   77.0    52   58.0   77.0   9.51  .0728    0.002   202    7    100.0   10 
 9/29/20  5:10a   66.5   66.5   65.7    61   52.6   3.0   NNE   0.50   9.0    NE   66.5   66.0   66.0   63.5  29.951  0.00  0.00     0     0.00      0     0.0  0.00   0.0   0.000   0.010   77.0    52   58.0   77.0   9.51  .0728    0.000   204    7    100.0   10 
 9/29/20  5:20a   67.2   67.2   66.4    61   53.3   4.0    NE   0.67   9.0   ENE   67.2   66.8   66.8   64.3  29.948  0.00  0.00     0     0.00      0     0.0  0.00   0.0   0.000   0.015   76.9    51   57.4   76.8   9.35  .0729    0.000   203    7    100.0   10 
 9/29/20  5:30a   67.2   67.2   66.7    53   49.5   4.0   NNE   0.67   9.0     N   67.2   66.1   66.1   63.5  29.948  0.00  0.00     0     0.00      0     0.0  0.00   0.0   0.000   0.015   76.8    50   56.8   76.6   9.21  .0729    0.000   204    7    100.0   10 
 9/29/20  5:40a   69.6   69.6   67.2    50   50.1   4.0     E   0.67  12.0   ENE   69.6   68.0   68.0   65.4  29.948  0.00  0.00     0     0.00      0     0.0  0.00   0.0   0.000   0.032   76.6    50   56.6   76.5   9.22  .0729    0.000   204    7    100.0   10 
 9/29/20  5:50a   69.5   69.6   69.5    49   49.5   3.0   ENE   0.50  11.0   ESE   69.5   67.9   67.9   65.3  29.947  0.00  0.00     0     0.00      0     0.0  0.00   0.0   0.000   0.031   76.5    49   55.9   76.3   9.02  .0730    0.000   202    7    100.0   10 
 9/29/20  6:00a   70.6   70.6   69.6    45   48.2   4.0    SE   0.67  13.0   ENE   70.6   68.6   68.6   65.9  29.951  0.00  0.00     0     0.00      0     0.0  0.00   0.0   0.000   0.039   76.4    49   55.8   76.2   9.02  .0730    0.003   204    7    100.0   10 
 9/29/20  6:10a   70.1   70.7   70.1    46   48.4   4.0    SE   0.67  12.0    SE   70.1   68.0   68.0   65.3  29.949  0.00  0.00     0     0.00      0     0.0  0.00   0.0   0.000   0.035   76.3    48   55.2   76.1   8.92  .0730    0.000   204    7    100.0   10 
 9/29/20  6:20a   70.6   70.6   70.2    45   48.2   4.0     E   0.67  10.0    SE   70.6   68.6   68.6   65.9  29.945  0.00  0.00     0     0.00      0     0.0  0.00   0.0   0.000   0.039   76.2    47   54.5   75.9   8.73  .0731    0.000   203    7    100.0   10 
 9/29/20  6:30a   71.0   71.0   70.6    45   48.6   3.0   ESE   0.50  10.0     E   71.0   69.1   69.1   66.4  29.946  0.00  0.00     0     0.00      0     0.0  0.00   0.0   0.000   0.042   76.2    47   54.5   75.9   8.73  .0731    0.000   203    7    100.0   10 
 9/29/20  6:40a   69.6   71.0   69.6    50   50.1   3.0     S   0.50  12.0    SW   69.6   68.0   68.0   65.4  29.947  0.00  0.00     0     0.00      0     0.0  0.00   0.0   0.000   0.032   76.1    46   53.8   75.8   8.53  .0731    0.000   203    7    100.0   10 
 9/29/20  6:50a   68.9   69.5   68.5    47   47.8   3.0   ESE   0.50  10.0     E   68.9   67.2   67.2   64.5  29.943  0.00  0.00     0     0.00      0     0.0  0.00   0.0   0.000   0.027   76.0    47   54.3   75.8   8.73  .0731    0.000   203    7    100.0   10 
 9/29/20  7:00a   69.7   69.7   68.9    46   48.0   4.0   ESE   0.67  13.0   ESE   69.7   67.7   67.7   65.0  29.944  0.00  0.00     0     0.00      0     0.0  0.00   0.0   0.000   0.033   75.9    46   53.6   75.6   8.53  .0731    0.002   204    7    100.0   10 
 9/29/20  7:10a   70.0   70.1   69.6    45   47.7   5.0     E   0.83  12.0   ESE   70.0   67.8   67.8   65.1  29.944  0.00  0.00     1     0.01      5     0.0  0.00   0.0   0.000   0.035   75.8    45   52.9   75.4   8.43  .0732    0.000   203    7    100.0   10 
 9/29/20  7:20a   70.2   70.3   70.0    44   47.3   5.0     E   0.83  12.0     E   70.2   68.0   68.0   65.5  29.947  0.00  0.00     8     0.11     11     0.0  0.00   0.0   0.000   0.036   75.7    45   52.8   75.3   8.44  .0732    0.000   200    7    100.0   10 
 9/29/20  7:30a   70.3   70.3   70.2    44   47.3   6.0   ESE   1.00  13.0   ENE   70.3   68.1   68.1   65.7  29.948  0.00  0.00    13     0.19     18     0.0  0.00   0.0   0.000   0.037   75.6    45   52.8   75.2   8.44  .0732    0.000   203    7    100.0   10 
 9/29/20  7:40a   70.4   70.4   70.3    44   47.4   6.0     E   1.00  13.0    SE   70.4   68.2   68.2   66.0  29.949  0.00  0.00    24     0.34     28     0.0  0.00   0.0   0.000   0.038   75.6    45   52.8   75.2   8.44  .0732    0.000   203    7    100.0   10 
 9/29/20  7:50a   70.6   70.6   70.3    44   47.6   5.0   ESE   0.83  11.0     E   70.6   68.5   68.5   66.6  29.950  0.00  0.00    34     0.49     39     0.0  0.00   0.0   0.000   0.039   75.5    44   52.1   75.1   8.24  .0733    0.000   203    7    100.0   10 
 9/29/20  8:00a   70.8   70.8   70.6    44   47.8   6.0     E   1.00  16.0   ESE   70.8   68.7   68.7   68.8  29.954  0.00  0.00    45     0.65     51     0.0  0.00   0.0   0.000   0.040   75.3    43   51.3   74.8   8.05  .0733    0.004   201    7    100.0   10 
 9/29/20  8:10a   71.2   71.2   70.8    43   47.6   6.0   ESE   1.00  12.0   ESE   71.2   69.2   69.2   69.8  29.953  0.00  0.00    57     0.82     62     0.0  0.00   0.0   0.000   0.043   75.2    44   51.8   74.8   8.25  .0733    0.000   205    7    100.0   10 
 9/29/20  8:20a   72.0   72.0   71.2    41   47.0   6.0     E   1.00  14.0    SE   72.0   70.2   70.2   72.7  29.952  0.00  0.00   106     1.52    132     0.0  0.00   0.0   0.000   0.049   75.2    43   51.2   74.7   8.05  .0733    0.000   204    7    100.0   10 
 9/29/20  8:30a   72.4   72.4   72.0    42   48.0   7.0   ESE   1.17  15.0    SE   72.4   70.9   70.9   74.8  29.956  0.00  0.00   147     2.11    160     0.0  0.00   0.0   0.000   0.051   75.1    42   50.4   74.5   7.95  .0734    0.000   203    7    100.0   10 
 9/29/20  8:40a   72.8   72.8   72.4    41   47.7   8.0   ESE   1.33  13.0   SSE   72.3   71.5   71.0   75.6  29.957  0.00  0.00   176     2.52    188     0.0  0.00   0.0   0.000   0.054   74.9    42   50.3   74.3   7.95  .0734    0.000   203    7    100.0   10 
 9/29/20  8:50a   72.8   72.8   72.7    41   47.7   7.0     E   1.17  16.0     E   72.8   71.5   71.5   77.0  29.957  0.00  0.00   203     2.91    213     0.0  0.00   0.0   0.000   0.054   74.8    42   50.2   74.2   7.95  .0734    0.000   204    7    100.0   10 
 9/29/20  9:00a   73.2   73.2   72.8    41   48.1   7.0   ESE   1.17  15.0     E   73.2   72.1   72.1   77.7  29.960  0.00  0.00   211     3.02    216     0.0  0.00   0.0   0.000   0.057   74.8    42   50.2   74.2   7.95  .0734    0.008   203    7    100.0   10 
 9/29/20  9:10a   73.4   73.5   73.2    41   48.3   7.0     E   1.17  15.0   ESE   73.4   72.3   72.3   77.7  29.958  0.00  0.00   210     3.01    214     0.0  0.00   0.0   0.000   0.058   74.7    42   50.1   74.0   7.96  .0735    0.000   204    7    100.0   10 
 9/29/20  9:20a   73.6   73.6   73.5    41   48.4   7.0     E   1.17  15.0   ESE   73.6   72.6   72.6   78.0  29.956  0.00  0.00   215     3.08    218     0.0  0.00   0.0   0.000   0.060   74.7    42   50.1   74.0   7.96  .0735    0.000   204    7    100.0   10 
 9/29/20  9:30a   73.6   73.7   73.5    41   48.4   8.0     E   1.33  14.0    SE   73.1   72.6   72.1   77.3  29.957  0.00  0.00   223     3.20    229     0.4  0.03   0.5   0.000   0.060   74.8    43   50.8   74.3   8.06  .0734    0.000   204    7    100.0   10 
 9/29/20  9:40a   73.5   73.6   73.5    41   48.4   8.0     E   1.33  17.0    SE   73.0   72.5   72.0   77.7  29.956  0.00  0.00   247     3.54    265     0.6  0.04   0.6   0.000   0.059   74.8    43   50.8   74.3   8.06  .0734    0.000   203    7    100.0   10 
 9/29/20  9:50a   73.9   73.9   73.5    41   48.7   8.0     E   1.33  18.0     E   73.4   73.0   72.5   78.9  29.961  0.00  0.00   282     4.04    290     0.7  0.05   0.7   0.000   0.062   74.8    43   50.8   74.3   8.06  .0734    0.000   203    7    100.0   10 
 9/29/20 10:00a   74.4   74.5   73.9    41   49.2   7.0     E   1.17  16.0     E   74.4   73.6   73.6   80.5  29.964  0.00  0.00   301     4.31    311     0.8  0.06   0.9   0.000   0.065   74.8    43   50.8   74.3   8.06  .0734    0.010   204    7    100.0   10 
 9/29/20 10:10a   75.0   75.1   74.4    40   49.0   8.0     E   1.33  15.0     E   74.5   74.2   73.7   80.6  29.969  0.00  0.00   321     4.60    332     0.9  0.06   1.0   0.000   0.069   74.9    43   50.9   74.4   8.05  .0734    0.000   200    7    100.0   10 
 9/29/20 10:20a   75.5   75.6   75.0    40   49.5   7.0     E   1.17  14.0   ESE   75.5   74.6   74.6   82.1  29.974  0.00  0.00   344     4.93    360     1.0  0.07   1.1   0.000   0.073   75.0    43   51.0   74.5   8.05  .0734    0.000   202    7    100.0   10 
 9/29/20 10:30a   76.1   76.1   75.6    40   50.0   8.0     E   1.33  14.0   ESE   75.6   75.2   74.7   82.5  29.972  0.00  0.00   378     5.42    388     1.2  0.09   1.2   0.000   0.077   75.1    43   51.1   74.6   8.05  .0734    0.000   203    7    100.0   10 
 9/29/20 10:40a   76.6   76.6   76.1    39   49.8   7.0     E   1.17  15.0     E   76.6   75.7   75.7   84.0  29.975  0.00  0.00   400     5.73    408     1.3  0.09   1.3   0.000   0.081   75.2    43   51.2   74.7   8.05  .0734    0.000   205    7    100.0   10 
 9/29/20 10:50a   77.3   77.3   76.6    40   51.1   7.0     E   1.17  13.0   ENE   77.3   76.5   76.5   85.2  29.977  0.00  0.00   425     6.09    438     1.4  0.10   1.5   0.000   0.085   75.3    44   51.9   74.9   8.24  .0734    0.000   203    7    100.0   10 
 9/29/20 11:00a   77.9   77.9   77.3    39   50.9   7.0     E   1.17  14.0     E   77.9   76.9   76.9   85.8  29.978  0.00  0.00   448     6.42    457     1.5  0.11   1.6   0.000   0.090   75.5    44   52.1   75.1   8.24  .0733    0.014   204    7    100.0   10 
 9/29/20 11:10a   78.2   78.3   77.9    39   51.2   7.0     E   1.17  15.0     E   78.2   77.2   77.2   86.1  29.979  0.00  0.00   455     6.52    459     1.7  0.12   1.7   0.000   0.092   75.7    44   52.2   75.2   8.24  .0733    0.000   203    7    100.0   10 
 9/29/20 11:20a   79.0   79.0   78.3    39   51.9   6.0     E   1.00  13.0     E   79.0   78.1   78.1   87.4  29.977  0.00  0.00   473     6.78    494     1.8  0.13   1.9   0.000   0.097   75.8    44   52.3   75.3   8.23  .0733    0.000   204    7    100.0   10 
 9/29/20 11:30a   79.6   79.7   79.0    38   51.8   7.0     E   1.17  14.0     E   79.6   78.5   78.5   87.8  29.977  0.00  0.00   499     7.15    503     2.0  0.14   2.0   0.000   0.101   76.0    44   52.5   75.5   8.23  .0732    0.000   204    7    100.0   10 
 9/29/20 11:40a   80.4   80.4   79.7    39   53.2   6.0     E   1.00  13.0    SE   80.4   79.3   79.3   89.1  29.976  0.00  0.00   518     7.43    540     2.2  0.16   2.3   0.000   0.107   76.2    44   52.7   75.7   8.23  .0732    0.000   204    7    100.0   10 
 9/29/20 11:50a   81.2   81.2   80.3    37   52.4   6.0     E   1.00  13.0     E   81.2   79.9   79.9   90.0  29.977  0.00  0.00   550     7.88    561     2.5  0.18   2.6   0.000   0.112   76.4    45   53.5   76.0   8.42  .0731    0.000   202    7    100.0   10 
 9/29/20 12:00p   82.0   82.0   81.2    37   53.2   5.0     E   0.83  13.0    NE   82.0   80.9   80.9   91.2  29.978  0.00  0.00   577     8.27    584     2.8  0.20   2.8   0.000   0.118   76.6    45   53.7   76.1   8.42  .0731    0.017   205    7    100.0   10 
 9/29/20 12:10p   82.7   82.7   82.0    37   53.8   5.0     E   0.83  11.0   ESE   82.7   81.8   81.8   92.2  29.978  0.00  0.00   585     8.39    589     2.8  0.20   2.9   0.000   0.123   76.8    45   53.8   76.3   8.41  .0731    0.000   202    7    100.0   10 
 9/29/20 12:20p   78.7   82.8   78.7    41   53.0   3.0     S   0.50  10.0   ESE   78.7   78.0   78.0   88.3  29.981  0.00  0.00   587     8.41    591     2.9  0.21   2.9   0.000   0.095   77.1    45   54.1   76.6   8.41  .0730    0.000   204    7    100.0   10 
Email: AdamSPAM@StormwatchersRetreat.com (To send me email remove the word 'SPAM' from my email address.)